Time;durP1;ratioP1;P1;durP2;ratioP2;P2;SDS_P1;SDS_P2;PMS_P1;PMS_P2;Temp;Humidity;BMP_temperature;BMP_pressure;BME280_temperature;BME280_humidity;BME280_pressure;Samples;Min_cycle;Max_cycle;Signal;HPM_P1;HPM_P2
2022/09/19 00:00:36;;;;;;;14.40;2.47;;;11.30;99.90;;;;;;5086397;28;20048;-78
2022/09/19 00:03:02;;;;;;;15.73;2.42;;;12.50;99.90;;;;;;5086932;28;20090;-78
2022/09/19 00:05:28;;;;;;;19.73;3.17;;;12.00;99.90;;;;;;5087395;28;20098;-78
2022/09/19 00:07:54;;;;;;;11.88;2.35;;;13.10;99.90;;;;;;5120408;27;20076;-78
2022/09/19 00:10:20;;;;;;;11.48;1.52;;;11.30;99.90;;;;;;5085978;28;20040;-77
2022/09/19 00:12:45;;;;;;;16.65;2.38;;;11.40;99.90;;;;;;5069291;28;20107;-78
2022/09/19 00:15:12;;;;;;;15.20;2.30;;;12.40;99.90;;;;;;5103426;28;20044;-78
2022/09/19 00:17:38;;;;;;;15.05;1.85;;;12.00;99.90;;;;;;5085323;28;20135;-78
2022/09/19 00:20:04;;;;;;;16.83;2.72;;;13.00;99.90;;;;;;5087130;28;20509;-77
2022/09/19 00:22:30;;;;;;;12.65;1.58;;;11.40;99.90;;;;;;5086453;28;20044;-78
2022/09/19 00:24:56;;;;;;;9.18;1.88;;;11.40;99.90;;;;;;5087070;28;20111;-78
2022/09/19 00:27:25;;;;;;;12.95;1.83;;;13.00;99.90;;;;;;5086616;28;20165;-78
2022/09/19 00:29:52;;;;;;;9.63;1.35;;;11.20;99.90;;;;;;5065856;28;20121;-78
2022/09/19 00:32:18;;;;;;;16.70;2.40;;;12.50;99.90;;;;;;5085646;28;20040;-78
2022/09/19 00:34:49;;;;;;;18.10;2.10;;;12.20;99.90;;;;;;5085787;28;20451;-78
2022/09/19 00:37:17;;;;;;;10.68;1.73;;;11.50;99.90;;;;;;5078188;28;20047;-77
2022/09/19 00:39:43;;;;;;;13.93;2.08;;;11.40;99.90;;;;;;5085286;28;20040;-78
2022/09/19 00:42:22;;;;;;;18.38;2.22;;;11.40;99.90;;;;;;5087396;28;20379;-78
2022/09/19 00:45:11;;;;;;;15.00;1.98;;;11.50;99.90;;;;;;5086993;28;20040;-77
2022/09/19 00:47:41;;;;;;;13.63;2.72;;;11.50;99.90;;;;;;5064134;28;20040;-78
2022/09/19 00:50:16;;;;;;;18.52;2.30;;;11.40;99.90;;;;;;5089643;28;20196;-78
2022/09/19 00:52:48;;;;;;;13.82;1.92;;;11.50;99.90;;;;;;5087757;28;20048;-78
2022/09/19 00:55:14;;;;;;;15.77;1.88;;;12.20;99.90;;;;;;5088381;28;20047;-78
2022/09/19 00:57:49;;;;;;;14.63;1.80;;;12.90;99.90;;;;;;5084559;28;20040;-78
2022/09/19 01:00:15;;;;;;;10.48;2.15;;;13.20;99.90;;;;;;5089933;28;20044;-77
2022/09/19 01:02:41;;;;;;;15.07;2.47;;;11.50;99.90;;;;;;5089476;28;20039;-78
2022/09/19 01:05:07;;;;;;;13.95;1.73;;;12.10;99.90;;;;;;5072606;28;20407;-78
2022/09/19 01:07:44;;;;;;;14.95;2.15;;;11.60;99.90;;;;;;5088511;28;20411;-78
2022/09/19 01:10:44;;;;;;;10.82;2.40;;;10.60;99.90;;;;;;5072175;28;20036;-78
2022/09/19 01:13:37;;;;;;;13.32;1.73;;;11.60;99.90;;;;;;5087780;28;20044;-78
2022/09/19 01:16:12;;;;;;;17.83;2.70;;;11.60;99.90;;;;;;5089285;28;20040;-78
2022/09/19 01:18:52;;;;;;;19.77;2.33;;;11.60;99.90;;;;;;5089391;28;20036;-78
2022/09/19 01:21:39;;;;;;;16.88;2.58;;;13.50;99.90;;;;;;5072054;28;20086;-77
2022/09/19 01:24:24;;;;;;;12.93;1.77;;;11.60;99.90;;;;;;5072450;28;20048;-78
2022/09/19 01:27:14;;;;;;;23.00;2.58;;;11.70;99.90;;;;;;5067876;28;20047;-79
2022/09/19 01:30:08;;;;;;;11.60;1.60;;;13.20;99.90;;;;;;5068528;28;20364;-78
2022/09/19 01:32:39;;;;;;;9.27;1.95;;;11.60;99.90;;;;;;5066642;28;20052;-78
2022/09/19 01:35:08;;;;;;;15.07;2.15;;;13.00;99.90;;;;;;5088366;28;20119;-78
2022/09/19 01:37:39;;;;;;;9.63;2.03;;;11.60;99.90;;;;;;5072348;28;20081;-78
2022/09/19 01:40:06;;;;;;;12.95;1.92;;;11.60;99.90;;;;;;5089983;28;20032;-78
2022/09/19 01:42:32;;;;;;;20.90;2.65;;;11.60;99.90;;;;;;5071236;28;20048;-78
2022/09/19 01:44:58;;;;;;;16.08;2.53;;;12.60;99.90;;;;;;5088790;28;20042;-78
2022/09/19 01:47:36;;;;;;;19.70;2.53;;;12.90;99.90;;;;;;5072141;28;20492;-78
2022/09/19 01:50:11;;;;;;;18.23;2.38;;;11.60;99.90;;;;;;5070807;28;20052;-78
2022/09/19 01:52:37;;;;;;;14.00;2.17;;;11.60;99.90;;;;;;5087118;28;20075;-78
2022/09/19 01:55:19;;;;;;;14.30;3.25;;;11.60;99.90;;;;;;5089033;28;20480;-78
2022/09/19 01:57:57;;;;;;;15.00;1.92;;;11.60;99.90;;;;;;5084141;28;20054;-78
2022/09/19 02:00:26;;;;;;;19.95;2.80;;;11.60;99.90;;;;;;5083134;28;20044;-78
2022/09/19 02:03:06;;;;;;;15.32;2.45;;;11.60;99.90;;;;;;5087591;28;20066;-78
2022/09/19 02:05:41;;;;;;;17.42;2.25;;;11.60;99.90;;;;;;5084374;28;20118;-78
2022/09/19 02:08:11;;;;;;;18.23;2.22;;;11.60;99.90;;;;;;5088284;28;20537;-78
2022/09/19 02:10:44;;;;;;;15.73;2.17;;;10.60;99.90;;;;;;5070196;28;20039;-78
2022/09/19 02:13:11;;;;;;;27.98;2.95;;;11.70;99.90;;;;;;5071772;28;20422;-78
2022/09/19 02:15:41;;;;;;;26.92;3.05;;;12.30;99.90;;;;;;5070932;28;20068;-78
2022/09/19 02:18:24;;;;;;;23.70;2.88;;;11.60;99.90;;;;;;5070413;28;20047;-78
2022/09/19 02:20:55;;;;;;;22.50;2.53;;;11.70;99.90;;;;;;5089254;28;20127;-78
2022/09/19 02:23:30;;;;;;;34.45;3.17;;;12.40;99.90;;;;;;5070710;28;20032;-77
2022/09/19 02:25:59;;;;;;;15.85;3.10;;;11.70;99.90;;;;;;5071066;28;20043;-78
2022/09/19 02:28:33;;;;;;;17.52;2.03;;;11.50;99.90;;;;;;5081697;28;20086;-78
2022/09/19 02:30:59;;;;;;;;;;;11.60;99.90;;;;;;5070543;28;20228;-78
2022/09/19 02:33:27;;;;;;;15.90;1.85;;;11.70;99.90;;;;;;5070856;28;20427;-78
2022/09/19 02:36:18;;;;;;;9.85;1.45;;;11.60;99.90;;;;;;5088003;28;20070;-78
2022/09/19 02:38:59;;;;;;;6.10;1.27;;;11.60;99.90;;;;;;5087181;28;20136;-78
2022/09/19 02:41:38;;;;;;;11.65;1.67;;;11.60;99.90;;;;;;5085039;28;20043;-78
2022/09/19 02:44:18;;;;;;;10.20;1.48;;;11.60;99.90;;;;;;5087152;28;20122;-78
2022/09/19 02:47:24;;;;;;;13.60;1.63;;;11.60;99.90;;;;;;5087507;28;20367;-78
2022/09/19 02:49:49;;;;;;;6.72;1.13;;;11.60;99.90;;;;;;5044281;28;20052;-78
2022/09/19 02:52:20;;;;;;;10.05;2.00;;;12.90;99.90;;;;;;5084957;28;20047;-78
2022/09/19 02:54:50;;;;;;;10.02;0.90;;;11.50;99.90;;;;;;5082272;28;20227;-78
2022/09/19 02:57:19;;;;;;;17.00;1.75;;;13.50;99.90;;;;;;5070274;28;20047;-78
2022/09/19 02:59:49;;;;;;;17.40;1.98;;;11.70;99.90;;;;;;5075293;28;20097;-78
2022/09/19 03:02:22;;;;;;;13.90;2.20;;;13.10;99.90;;;;;;5086676;28;20469;-78
2022/09/19 03:04:54;;;;;;;14.63;1.95;;;11.50;99.90;;;;;;5070643;28;20048;-78
2022/09/19 03:07:27;;;;;;;12.60;1.60;;;11.70;99.90;;;;;;5086855;28;20488;-78
2022/09/19 03:10:12;;;;;;;17.10;2.33;;;11.50;99.90;;;;;;5088679;28;20522;-78
2022/09/19 03:12:50;;;;;;;;;;;11.50;99.90;;;;;;5078191;28;20048;-78
2022/09/19 03:15:20;;;;;;;14.88;2.22;;;11.60;99.90;;;;;;5087041;28;19920;-78
2022/09/19 03:17:49;;;;;;;12.30;2.53;;;11.50;99.90;;;;;;5086417;28;20533;-78
2022/09/19 03:20:16;;;;;;;18.13;2.40;;;11.50;99.90;;;;;;5087111;28;20160;-78
2022/09/19 03:22:42;;;;;;;19.33;1.77;;;12.40;99.90;;;;;;5064125;28;20043;-77
2022/09/19 03:25:09;;;;;;;20.90;2.75;;;12.80;99.90;;;;;;5087588;28;20518;-78
2022/09/19 03:27:36;;;;;;;12.35;2.70;;;11.60;99.90;;;;;;5069793;28;20032;-78
2022/09/19 03:30:08;;;;;;;15.00;2.42;;;11.60;99.90;;;;;;5086565;28;20055;-78
2022/09/19 03:32:35;;;;;;;17.05;2.20;;;11.60;99.90;;;;;;5086162;28;20522;-77
2022/09/19 03:35:02;;;;;;;15.75;2.28;;;11.80;99.90;;;;;;5087005;28;20262;-78
2022/09/19 03:37:29;;;;;;;15.63;2.35;;;12.70;99.90;;;;;;5066037;28;20447;-78
2022/09/19 03:39:55;;;;;;;14.13;2.45;;;11.70;99.90;;;;;;5087300;28;20501;-78
2022/09/19 03:42:20;;;;;;;17.40;2.47;;;11.50;99.90;;;;;;5088643;28;20130;-78
2022/09/19 03:44:46;;;;;;;16.05;1.92;;;13.40;99.90;;;;;;5070073;28;20051;-77
2022/09/19 03:47:12;;;;;;;12.50;2.28;;;13.10;99.90;;;;;;5120414;27;20039;-78
2022/09/19 03:49:37;;;;;;;18.88;2.60;;;11.60;99.90;;;;;;5069870;28;20596;-78
2022/09/19 03:52:03;;;;;;;17.67;2.33;;;11.60;99.90;;;;;;5118001;28;20043;-78
2022/09/19 03:54:29;;;;;;;18.35;3.17;;;12.90;99.90;;;;;;5086157;28;20115;-79
2022/09/19 03:56:55;;;;;;;15.50;2.63;;;11.70;99.90;;;;;;5070319;28;20048;-78
2022/09/19 03:59:21;;;;;;;18.63;2.15;;;12.90;99.90;;;;;;5086724;28;20397;-78
2022/09/19 04:01:46;;;;;;;25.13;4.00;;;11.80;99.90;;;;;;5086040;28;20048;-78
2022/09/19 04:04:12;;;;;;;16.38;2.65;;;12.00;99.90;;;;;;5086279;28;20466;-78
2022/09/19 04:06:40;;;;;;;19.98;3.45;;;11.80;99.90;;;;;;5086372;28;20507;-78
2022/09/19 04:09:06;;;;;;;15.32;2.42;;;13.00;99.90;;;;;;5087594;28;20047;-79
2022/09/19 04:11:31;;;;;;;15.85;2.40;;;11.60;99.90;;;;;;5086766;28;20048;-78
2022/09/19 04:13:57;;;;;;;14.77;2.08;;;11.70;99.90;;;;;;5069451;28;20077;-78
2022/09/19 04:16:24;;;;;;;19.10;2.28;;;11.60;99.90;;;;;;5121089;28;20036;-78
2022/09/19 04:18:50;;;;;;;13.68;1.90;;;11.70;99.90;;;;;;5086616;28;20040;-78
2022/09/19 04:21:17;;;;;;;13.57;2.38;;;11.70;99.90;;;;;;5085944;28;20094;-78
2022/09/19 04:23:43;;;;;;;15.63;2.75;;;11.70;99.90;;;;;;5071916;28;20101;-78
2022/09/19 04:26:11;;;;;;;17.38;2.45;;;13.20;99.90;;;;;;5073713;28;20416;-78
2022/09/19 04:28:38;;;;;;;19.25;3.05;;;12.80;99.90;;;;;;5089970;28;20118;-78
2022/09/19 04:31:08;;;;;;;15.00;2.10;;;11.70;99.90;;;;;;5073315;28;20390;-78
2022/09/19 04:33:34;;;;;;;21.35;2.65;;;11.80;99.90;;;;;;5065777;28;20032;-78
2022/09/19 04:36:00;;;;;;;15.98;3.08;;;11.70;99.90;;;;;;5090972;28;20067;-78
2022/09/19 04:38:28;;;;;;;13.27;2.00;;;11.80;99.90;;;;;;5107318;28;20075;-78
2022/09/19 04:40:57;;;;;;;16.40;2.55;;;12.60;99.90;;;;;;5090048;28;20071;-78
2022/09/19 04:43:26;;;;;;;22.92;2.92;;;11.70;99.90;;;;;;5089863;28;20047;-78
2022/09/19 04:45:55;;;;;;;14.38;2.30;;;13.10;99.90;;;;;;5073475;28;20044;-78
2022/09/19 04:48:22;;;;;;;19.48;2.92;;;11.80;99.90;;;;;;5090248;28;20036;-78
2022/09/19 04:50:50;;;;;;;17.67;2.33;;;11.20;99.90;;;;;;5090683;28;20044;-78
2022/09/19 04:53:24;;;;;;;19.63;2.53;;;11.80;99.90;;;;;;5088066;28;20040;-78
2022/09/19 04:55:51;;;;;;;14.38;2.30;;;11.80;99.90;;;;;;5081416;28;20045;-78
2022/09/19 04:58:17;;;;;;;11.55;2.03;;;11.80;99.90;;;;;;5087817;28;20050;-78
2022/09/19 05:00:45;;;;;;;16.17;2.28;;;11.80;99.90;;;;;;5072825;28;20036;-78
2022/09/19 05:03:15;;;;;;;14.32;1.90;;;12.60;99.90;;;;;;5083180;28;20044;-78
2022/09/19 05:05:44;;;;;;;15.23;2.85;;;11.70;99.90;;;;;;5072760;28;20424;-77
2022/09/19 05:08:12;;;;;;;10.38;2.03;;;13.50;99.90;;;;;;5089654;28;20059;-78
2022/09/19 05:10:38;;;;;;;10.55;2.22;;;11.80;99.90;;;;;;5088893;28;20122;-78
2022/09/19 05:13:04;;;;;;;13.75;2.00;;;11.70;99.90;;;;;;5089729;28;20138;-78
2022/09/19 05:15:30;;;;;;;13.00;2.00;;;11.70;99.90;;;;;;5090742;28;20494;-78
2022/09/19 05:17:56;;;;;;;11.27;2.40;;;11.60;99.90;;;;;;5089232;28;20135;-78
2022/09/19 05:20:26;;;;;;;9.30;2.03;;;11.70;99.90;;;;;;5072300;28;20047;-78
2022/09/19 05:22:59;;;;;;;10.95;1.98;;;11.90;99.90;;;;;;5089862;28;20102;-78
2022/09/19 05:25:30;;;;;;;15.10;3.17;;;11.70;99.90;;;;;;5072148;28;20051;-78
2022/09/19 05:28:05;;;;;;;15.85;1.95;;;11.70;99.90;;;;;;5089135;28;20503;-78
2022/09/19 05:30:37;;;;;;;11.77;2.10;;;12.90;99.90;;;;;;5089176;28;20044;-77
2022/09/19 05:33:03;;;;;;;20.05;2.88;;;11.60;99.90;;;;;;5088844;28;20135;-77
2022/09/19 05:35:30;;;;;;;12.95;2.20;;;11.80;99.90;;;;;;5089472;28;20049;-78
2022/09/19 05:37:57;;;;;;;17.92;2.03;;;11.40;99.90;;;;;;5090661;28;20124;-78
2022/09/19 05:40:24;;;;;;;13.77;2.38;;;11.60;99.90;;;;;;5071783;28;20051;-79
2022/09/19 05:42:51;;;;;;;16.35;2.42;;;11.60;99.90;;;;;;5089055;28;20048;-78
2022/09/19 05:45:17;;;;;;;16.15;3.33;;;12.50;99.90;;;;;;5089965;28;20036;-78
2022/09/19 05:47:43;;;;;;;15.50;2.33;;;11.70;99.90;;;;;;5090091;28;20048;-78
2022/09/19 05:50:10;;;;;;;10.80;2.00;;;11.60;99.90;;;;;;5090204;28;20040;-78
2022/09/19 05:55:27;;;;;;;13.63;1.70;;;11.60;99.90;;;;;;5090416;28;20123;-78
2022/09/19 05:57:55;;;;;;;13.20;1.90;;;12.30;99.90;;;;;;5089017;28;20083;-78
2022/09/19 06:00:23;;;;;;;11.95;2.08;;;11.80;99.90;;;;;;5071215;28;20036;-78
2022/09/19 06:02:57;;;;;;;15.25;2.58;;;11.70;99.90;;;;;;5072085;28;20526;-78
2022/09/19 06:05:24;;;;;;;13.60;2.00;;;11.80;99.90;;;;;;5071886;28;20419;-78
2022/09/19 06:07:51;;;;;;;15.93;3.38;;;11.60;99.90;;;;;;5089948;28;20044;-78
2022/09/19 06:10:20;;;;;;;16.60;4.30;;;13.00;99.90;;;;;;5088904;28;20036;-78
2022/09/19 06:12:49;;;;;;;17.73;3.00;;;11.60;99.90;;;;;;5088933;28;20047;-78
2022/09/19 06:15:15;;;;;;;13.00;1.92;;;11.60;99.90;;;;;;5088009;28;20151;-78
2022/09/19 06:17:41;;;;;;;10.55;2.80;;;13.20;99.90;;;;;;5089951;28;20047;-78
2022/09/19 06:20:08;;;;;;;12.45;3.13;;;11.60;99.90;;;;;;5088061;28;20036;-78
2022/09/19 06:22:34;;;;;;;13.60;2.28;;;11.50;99.90;;;;;;5087292;28;20051;-78
2022/09/19 06:25:00;;;;;;;14.60;2.10;;;12.90;99.90;;;;;;5088453;28;20032;-78
2022/09/19 06:27:30;;;;;;;18.13;3.28;;;11.50;99.90;;;;;;5087272;28;20083;-78
2022/09/19 06:29:56;;;;;;;18.05;8.63;;;11.50;99.90;;;;;;5088155;28;20055;-78
2022/09/19 06:32:21;;;;;;;18.27;4.07;;;12.60;99.90;;;;;;5071315;28;20403;-78
2022/09/19 06:34:47;;;;;;;13.23;2.60;;;11.60;99.90;;;;;;5087469;28;20119;-78
2022/09/19 06:37:12;;;;;;;22.20;3.22;;;11.60;99.90;;;;;;5089266;28;20048;-78
2022/09/19 06:39:39;;;;;;;18.10;2.38;;;11.70;99.90;;;;;;5087735;28;20028;-78
2022/09/19 06:42:04;;;;;;;17.02;2.35;;;11.60;99.90;;;;;;5087101;28;20087;-78
2022/09/19 06:44:30;;;;;;;9.77;2.15;;;11.70;99.90;;;;;;5087740;28;20048;-78
2022/09/19 06:46:58;;;;;;;13.05;1.80;;;11.70;99.90;;;;;;5088806;28;20047;-78
2022/09/19 06:49:23;;;;;;;14.27;2.65;;;11.70;99.90;;;;;;5088486;28;20127;-78
2022/09/19 06:51:50;;;;;;;10.90;1.80;;;11.70;99.90;;;;;;5086880;28;20170;-78
2022/09/19 06:54:15;;;;;;;11.00;1.52;;;11.70;99.90;;;;;;5085696;28;20085;-78
2022/09/19 06:56:41;;;;;;;12.98;2.53;;;11.70;99.90;;;;;;5087044;28;20372;-78
2022/09/19 06:59:07;;;;;;;16.77;1.77;;;11.70;99.90;;;;;;5087410;28;20028;-78
2022/09/19 07:01:33;;;;;;;14.02;1.77;;;11.70;99.90;;;;;;5088804;28;20306;-78
2022/09/19 07:03:59;;;;;;;10.07;1.58;;;12.50;99.90;;;;;;5069588;28;20080;-79
2022/09/19 07:06:25;;;;;;;10.93;1.38;;;11.80;99.90;;;;;;5121916;27;20072;-78
2022/09/19 07:08:54;;;;;;;15.35;3.83;;;11.80;99.90;;;;;;5087361;28;20372;-78
2022/09/19 07:11:19;;;;;;;14.38;3.55;;;11.40;99.90;;;;;;5103904;28;20035;-78
2022/09/19 07:13:49;;;;;;;9.65;1.75;;;11.70;99.90;;;;;;5088981;28;20040;-78
2022/09/19 07:16:20;;;;;;;12.38;1.65;;;12.40;99.90;;;;;;5083552;28;20032;-79
2022/09/19 07:18:45;;;;;;;14.52;2.40;;;11.60;99.90;;;;;;5096391;28;20051;-78
2022/09/19 07:21:11;;;;;;;10.35;1.70;;;11.70;99.90;;;;;;5088454;28;20032;-78
2022/09/19 07:23:37;;;;;;;18.35;2.13;;;11.70;99.90;;;;;;5086719;28;20085;-78
2022/09/19 07:26:03;;;;;;;18.80;2.95;;;11.70;99.90;;;;;;5070325;28;20078;-78
2022/09/19 07:28:30;;;;;;;18.48;2.95;;;11.70;99.90;;;;;;5086865;28;20097;-78
2022/09/19 07:30:58;;;;;;;19.63;2.47;;;11.80;99.90;;;;;;5087582;28;20533;-78
2022/09/19 07:33:24;;;;;;;21.38;2.50;;;11.80;99.90;;;;;;5087359;28;20328;-78
2022/09/19 07:35:51;;;;;;;21.73;3.42;;;12.90;99.90;;;;;;5087492;28;20051;-78
2022/09/19 07:38:19;;;;;;;14.55;2.25;;;11.90;99.90;;;;;;5086299;28;20407;-78
2022/09/19 07:40:45;;;;;;;24.13;3.35;;;13.40;99.90;;;;;;5087921;28;20527;-79
2022/09/19 07:43:13;;;;;;;19.58;2.83;;;13.10;99.90;;;;;;5086802;28;20040;-78
2022/09/19 07:45:51;;;;;;;21.70;3.10;;;12.10;99.90;;;;;;5086416;28;20043;-78
2022/09/19 07:48:18;;;;;;;19.83;2.60;;;12.10;99.90;;;;;;5070406;28;20036;-78
2022/09/19 07:50:45;;;;;;;18.48;2.72;;;12.20;99.90;;;;;;5087879;28;20097;-78
2022/09/19 07:53:13;;;;;;;24.02;6.35;;;12.20;99.90;;;;;;5082067;28;20071;-78
2022/09/19 07:55:41;;;;;;;24.02;2.83;;;12.30;99.90;;;;;;5087025;28;20047;-79
2022/09/19 07:58:10;;;;;;;13.45;2.38;;;12.70;99.90;;;;;;5087954;28;20032;-78
2022/09/19 08:00:36;;;;;;;15.00;2.47;;;12.40;99.90;;;;;;5090205;28;20115;-78
2022/09/19 08:03:09;;;;;;;17.23;2.30;;;12.50;99.90;;;;;;5092240;28;20337;-78
2022/09/19 08:05:39;;;;;;;11.65;2.05;;;13.20;99.90;;;;;;5090702;28;20047;-78
2022/09/19 08:08:06;;;;;;;12.25;1.48;;;12.50;99.90;;;;;;5091540;28;20525;-78
2022/09/19 08:10:32;;;;;;;10.15;1.48;;;12.50;99.90;;;;;;5091717;28;20043;-78
2022/09/19 08:13:05;;;;;;;18.05;1.83;;;13.50;99.90;;;;;;5091624;28;20044;-78
2022/09/19 08:15:35;;;;;;;19.90;2.50;;;13.50;99.90;;;;;;5092007;28;20111;-78
2022/09/19 08:18:06;;;;;;;22.38;3.78;;;12.70;99.90;;;;;;5091162;28;20036;-78
2022/09/19 08:20:36;;;;;;;18.38;5.93;;;12.60;99.90;;;;;;5072795;28;20036;-78
2022/09/19 08:23:05;;;;;;;18.88;2.67;;;12.70;99.90;;;;;;5090978;28;20043;-78
2022/09/19 08:25:33;;;;;;;16.55;2.30;;;12.70;99.90;;;;;;5090873;28;20035;-78
2022/09/19 08:27:59;;;;;;;16.67;2.38;;;12.70;99.90;;;;;;5090036;28;20040;-78
2022/09/19 08:30:29;;;;;;;13.75;2.95;;;12.70;99.90;;;;;;5091465;28;20515;-78
2022/09/19 08:33:00;;;;;;;18.20;2.40;;;12.80;99.90;;;;;;5070643;28;20479;-77
2022/09/19 08:35:27;;;;;;;16.85;2.10;;;14.00;99.90;;;;;;5073514;28;20393;-78
2022/09/19 08:37:58;;;;;;;18.90;2.47;;;12.80;99.90;;;;;;5087361;28;20113;-78
2022/09/19 08:40:28;;;;;;;15.25;2.10;;;13.90;99.90;;;;;;5090427;28;20036;-78
2022/09/19 08:43:03;;;;;;;13.77;2.30;;;12.90;99.90;;;;;;5084803;28;20040;-78
2022/09/19 08:45:47;;;;;;;19.50;2.20;;;13.00;99.90;;;;;;5073235;28;20047;-78
2022/09/19 08:48:27;;;;;;;21.02;2.78;;;13.00;99.90;;;;;;5090495;28;20055;-78
2022/09/19 08:51:25;;;;;;;20.63;7.22;;;13.10;99.90;;;;;;5116392;27;20477;-78
2022/09/19 08:54:00;;;;;;;78.43;58.25;;;13.20;99.90;;;;;;5065815;28;20101;-77
2022/09/19 08:56:28;;;;;;;12.55;3.00;;;13.20;99.90;;;;;;5072669;28;20067;-78
2022/09/19 08:59:07;;;;;;;22.65;2.72;;;13.30;99.90;;;;;;5086496;28;20036;-78
2022/09/19 09:01:37;;;;;;;13.25;2.03;;;13.40;99.90;;;;;;5090231;28;20476;-78
2022/09/19 09:04:07;;;;;;;14.18;2.50;;;13.50;99.90;;;;;;5085840;28;20095;-78
2022/09/19 09:06:55;;;;;;;13.27;2.53;;;13.60;99.90;;;;;;5087134;28;20088;-78
2022/09/19 09:09:26;;;;;;;17.25;3.13;;;13.60;99.90;;;;;;5067197;28;20279;-78
2022/09/19 09:12:08;;;;;;;25.70;3.20;;;13.60;99.90;;;;;;5081649;28;20063;-77
2022/09/19 09:14:58;;;;;;;17.98;2.72;;;13.50;99.90;;;;;;5089868;28;20051;-78
2022/09/19 09:17:37;;;;;;;16.33;2.70;;;13.50;99.90;;;;;;5086075;28;20040;-78
2022/09/19 09:20:28;;;;;;;22.98;2.90;;;13.60;99.90;;;;;;5086016;28;20046;-78
2022/09/19 09:23:27;;;;;;;18.63;2.78;;;13.60;99.90;;;;;;5072753;28;20064;-78
2022/09/19 09:26:05;;;;;;;16.85;2.45;;;13.60;99.90;;;;;;5105675;28;20107;-79
2022/09/19 09:28:55;;;;;;;17.40;2.05;;;14.20;99.90;;;;;;5072093;28;20036;-80
2022/09/19 09:31:38;;;;;;;13.85;2.28;;;13.80;99.90;;;;;;5101219;28;20390;-79
2022/09/19 09:34:14;;;;;;;18.17;2.08;;;13.70;99.90;;;;;;5065330;28;20135;-80
2022/09/19 09:36:55;;;;;;;16.83;3.30;;;13.00;99.90;;;;;;5088802;28;20043;-79
2022/09/19 09:40:08;;;;;;;17.15;2.70;;;13.80;99.90;;;;;;5076681;28;20036;-78
2022/09/19 09:43:05;;;;;;;9.85;1.98;;;13.80;99.90;;;;;;5118180;27;20088;-80
2022/09/19 09:45:44;;;;;;;9.15;1.85;;;13.90;99.90;;;;;;5078858;28;20126;-78
2022/09/19 09:48:26;;;;;;;13.18;2.33;;;14.00;99.90;;;;;;5076407;28;20119;-78
2022/09/19 09:51:21;;;;;;;11.98;2.60;;;14.00;99.90;;;;;;5079338;28;20040;-78
2022/09/19 09:53:59;;;;;;;17.70;2.22;;;14.00;99.90;;;;;;5080141;28;20135;-79
2022/09/19 09:56:41;;;;;;;11.05;2.00;;;14.00;99.90;;;;;;5088925;28;20040;-79
2022/09/19 10:05:12;;;;;;;5.82;0.63;;;14.20;99.90;;;;;;5083638;28;20067;-79
2022/09/19 10:07:56;;;;;;;4.15;0.50;;;15.50;99.90;;;;;;5082829;28;20044;-79
2022/09/19 10:10:22;;;;;;;14.95;8.75;;;14.00;99.90;;;;;;5088237;28;20036;-79
2022/09/19 10:13:01;;;;;;;10.43;3.50;;;14.00;99.90;;;;;;5087545;28;20046;-80
2022/09/19 10:15:30;;;;;;;8.77;1.60;;;13.90;99.90;;;;;;5082335;28;20120;-80
2022/09/19 10:18:06;;;;;;;12.18;2.10;;;15.20;99.90;;;;;;5058294;28;20483;-80
2022/09/19 10:20:38;;;;;;;9.23;2.10;;;15.20;99.90;;;;;;5077913;28;20740;-79
2022/09/19 10:23:09;;;;;;;9.02;1.40;;;15.30;99.90;;;;;;5074109;28;20114;-80
2022/09/19 10:25:35;;;;;;;14.63;2.42;;;15.10;99.90;;;;;;5058057;28;20492;-80
2022/09/19 10:28:37;;;;;;;9.70;1.38;;;14.20;99.90;;;;;;5058819;28;20051;-80
2022/09/19 10:31:04;;;;;;;13.55;2.08;;;13.40;99.90;;;;;;5097189;28;20632;-78
2022/09/19 10:33:44;;;;;;;14.75;2.70;;;13.50;99.90;;;;;;5056442;28;20399;-78
2022/09/19 10:36:21;;;;;;;13.07;2.50;;;13.50;99.90;;;;;;5080449;28;20588;-79
2022/09/19 10:38:58;;;;;;;13.05;2.13;;;13.60;99.90;;;;;;5068200;28;20385;-78
2022/09/19 10:41:26;;;;;;;15.73;2.53;;;13.60;99.90;;;;;;5070310;28;20036;-78
2022/09/19 10:44:13;;;;;;;16.27;2.55;;;13.70;99.90;;;;;;5070967;28;20051;-79
2022/09/19 10:46:49;;;;;;;13.77;1.83;;;13.80;99.90;;;;;;5070899;28;20518;-79
2022/09/19 10:49:21;;;;;;;15.68;2.47;;;14.50;99.90;;;;;;5077361;28;20115;-79
2022/09/19 10:51:50;;;;;;;16.67;2.20;;;13.90;99.90;;;;;;5054376;28;20082;-79
2022/09/19 10:54:41;;;;;;;17.02;2.25;;;14.00;99.90;;;;;;5060961;28;20039;-79
2022/09/19 10:57:25;;;;;;;14.77;2.10;;;14.30;99.90;;;;;;5063708;28;20453;-79
2022/09/19 10:59:52;;;;;;;;;;;15.60;99.90;;;;;;5064505;28;20047;-79
2022/09/19 11:02:19;;;;;;;20.50;3.80;;;14.30;99.90;;;;;;5073325;28;19970;-80
2022/09/19 11:04:59;;;;;;;18.55;2.70;;;14.40;99.90;;;;;;5074490;28;20424;-79
2022/09/19 11:07:29;;;;;;;14.20;2.17;;;14.30;99.90;;;;;;5075717;28;20048;-79
2022/09/19 11:09:59;;;;;;;14.35;2.53;;;15.80;99.90;;;;;;5084594;28;20400;-80
2022/09/19 11:12:30;;;;;;;15.48;2.33;;;14.00;99.90;;;;;;5088315;28;20067;-80
2022/09/19 11:14:56;;;;;;;14.15;2.88;;;13.90;99.90;;;;;;5087248;28;20480;-79
2022/09/19 11:17:31;;;;;;;16.80;2.50;;;14.30;99.90;;;;;;5070189;28;20468;-80
2022/09/19 11:20:41;;;;;;;15.65;2.60;;;13.70;99.90;;;;;;5087142;28;20044;-79
2022/09/19 11:23:32;;;;;;;19.48;2.85;;;13.90;99.90;;;;;;5083747;28;20040;-79
2022/09/19 11:26:06;;;;;;;14.68;2.38;;;14.00;99.90;;;;;;5069930;28;20075;-80
2022/09/19 11:29:12;;;;;;;15.00;1.88;;;14.10;99.90;;;;;;5064943;28;20047;-79
2022/09/19 11:31:47;;;;;;;21.23;2.78;;;14.10;99.90;;;;;;5064276;28;20129;-79
2022/09/19 11:34:25;;;;;;;12.95;1.70;;;14.30;99.90;;;;;;5080460;28;20127;-79
2022/09/19 11:37:01;;;;;;;15.43;2.60;;;14.30;99.90;;;;;;5087444;28;20040;-79
2022/09/19 11:39:55;;;;;;;14.98;1.75;;;14.50;99.90;;;;;;5088186;28;20165;-80
2022/09/19 11:42:44;;;;;;;19.40;2.50;;;14.60;99.90;;;;;;5064233;28;20115;-79
2022/09/19 11:45:18;;;;;;;13.85;1.80;;;14.80;99.90;;;;;;5083529;28;20039;-80
2022/09/19 11:47:50;;;;;;;17.88;2.45;;;14.90;99.90;;;;;;5086470;28;20512;-80
2022/09/19 11:50:46;;;;;;;12.30;2.40;;;14.90;99.90;;;;;;5084142;28;20370;-79
2022/09/19 11:53:36;;;;;;;9.40;2.15;;;14.80;99.90;;;;;;5079713;28;20078;-79
2022/09/19 11:56:35;;;;;;;17.35;3.25;;;14.70;99.90;;;;;;5085359;28;20044;-79
2022/09/19 11:59:03;;;;;;;13.05;1.98;;;14.70;99.90;;;;;;5086687;28;20044;-80
2022/09/19 12:01:59;;;;;;;14.48;2.67;;;14.70;99.90;;;;;;5086712;28;20041;-79
2022/09/19 12:04:33;;;;;;;17.40;2.67;;;14.90;99.90;;;;;;5077635;28;20080;-77
2022/09/19 12:07:12;;;;;;;15.40;2.33;;;15.00;99.90;;;;;;5060188;28;20080;-80
2022/09/19 12:09:52;;;;;;;10.13;1.60;;;15.20;99.90;;;;;;5063946;28;20129;-80
2022/09/19 12:12:24;;;;;;;12.40;1.92;;;15.60;99.90;;;;;;5080613;28;20036;-80
2022/09/19 12:15:01;;;;;;;12.75;2.00;;;15.40;99.90;;;;;;5083822;28;20063;-79
2022/09/19 12:17:42;;;;;;;13.35;2.05;;;15.50;99.90;;;;;;5063561;28;20441;-80
2022/09/19 12:20:36;;;;;;;13.77;1.80;;;16.30;99.90;;;;;;5068484;28;20628;-81
2022/09/19 12:26:06;;;;;;;13.48;2.75;;;15.50;99.90;;;;;;5085455;28;20115;-80
2022/09/19 12:28:38;;;;;;;10.90;2.42;;;15.50;99.90;;;;;;5064446;28;20066;-79
2022/09/19 12:31:08;;;;;;;14.80;2.15;;;15.50;99.90;;;;;;5085281;28;20043;-82
2022/09/19 12:33:45;;;;;;;18.35;2.53;;;15.70;99.90;;;;;;5085087;28;20266;-78
2022/09/19 12:36:20;;;;;;;16.13;2.30;;;16.70;99.90;;;;;;5085333;28;20044;-81
2022/09/19 12:38:56;;;;;;;;;;;15.80;99.90;;;;;;5087596;28;20040;-80
2022/09/19 12:41:40;;;;;;;12.40;1.70;;;15.80;99.90;;;;;;5062671;28;19927;-81
2022/09/19 12:44:31;;;;;;;17.50;4.70;;;15.80;99.90;;;;;;5088099;28;20093;-80
2022/09/19 12:47:25;;;;;;;12.52;1.88;;;15.70;99.90;;;;;;5091154;28;20090;-80
2022/09/19 12:50:02;;;;;;;10.13;1.85;;;15.70;99.90;;;;;;5088808;28;20044;-80
2022/09/19 12:52:34;;;;;;;15.82;2.03;;;15.70;99.90;;;;;;5086459;28;20032;-80
2022/09/19 12:55:13;;;;;;;9.18;1.92;;;15.50;99.90;;;;;;5089505;28;20048;-81
2022/09/19 12:57:57;;;;;;;16.77;1.88;;;15.30;99.90;;;;;;5083552;28;20043;-80
2022/09/19 13:00:24;;;;;;;15.38;2.53;;;15.20;99.90;;;;;;5065914;28;20074;-80
2022/09/19 13:03:25;;;;;;;16.75;2.53;;;15.10;99.90;;;;;;5082533;28;20052;-80
2022/09/19 13:06:02;;;;;;;18.50;3.00;;;14.90;99.90;;;;;;5103409;28;20484;-79
2022/09/19 13:08:35;;;;;;;17.80;3.55;;;16.30;99.90;;;;;;5060900;28;20040;-83
2022/09/19 13:11:24;;;;;;;11.52;2.08;;;14.20;99.90;;;;;;5088308;28;20275;-82
2022/09/19 13:14:13;;;;;;;14.52;1.52;;;15.30;99.90;;;;;;5085945;28;20040;-82
2022/09/19 13:23:29;;;;;;;8.98;2.17;;;14.70;99.90;;;;;;5079706;28;20047;-82
2022/09/19 13:25:18;;;;;;;15.05;1.95;;;15.10;99.90;;;;;;5086870;28;20082;-81